sensor_id;sensor_type;location;lat;lon;timestamp;pressure;altitude;pressure_sealevel;temperature;humidity
60918;BME280;46792;38.854;-9.384;2023-02-21T00:00:13;99735.06;;;12.75;93.52
60918;BME280;46792;38.854;-9.384;2023-02-21T00:02:32;99730.22;;;12.67;93.27
60918;BME280;46792;38.854;-9.384;2023-02-21T00:05:12;99735.91;;;12.65;93.34
60918;BME280;46792;38.854;-9.384;2023-02-21T00:13:24;99729.41;;;12.56;93.91
60918;BME280;46792;38.854;-9.384;2023-02-21T00:15:43;99728.88;;;12.54;94.36
60918;BME280;46792;38.854;-9.384;2023-02-21T00:18:03;99722.38;;;12.55;94.78
60918;BME280;46792;38.854;-9.384;2023-02-21T00:20:22;99719.66;;;12.55;94.92
60918;BME280;46792;38.854;-9.384;2023-02-21T00:22:41;99714.50;;;12.53;94.88
60918;BME280;46792;38.854;-9.384;2023-02-21T00:25:00;99721.28;;;12.51;94.41
60918;BME280;46792;38.854;-9.384;2023-02-21T00:27:20;99718.88;;;12.44;94.55
60918;BME280;46792;38.854;-9.384;2023-02-21T00:29:40;99725.09;;;12.39;94.81
60918;BME280;46792;38.854;-9.384;2023-02-21T00:31:59;99720.22;;;12.36;95.14
60918;BME280;46792;38.854;-9.384;2023-02-21T00:34:18;99719.13;;;12.32;95.59
60918;BME280;46792;38.854;-9.384;2023-02-21T00:36:38;99721.88;;;12.27;96.02
60918;BME280;46792;38.854;-9.384;2023-02-21T00:39:17;99717.78;;;12.24;96.31
60918;BME280;46792;38.854;-9.384;2023-02-21T00:41:36;99725.09;;;12.24;96.57
60918;BME280;46792;38.854;-9.384;2023-02-21T00:43:58;99722.94;;;12.26;96.43
60918;BME280;46792;38.854;-9.384;2023-02-21T00:46:18;99721.31;;;12.20;96.44
60918;BME280;46792;38.854;-9.384;2023-02-21T00:48:37;99722.38;;;12.13;97.02
60918;BME280;46792;38.854;-9.384;2023-02-21T00:51:17;99720.75;;;12.12;97.68
60918;BME280;46792;38.854;-9.384;2023-02-21T00:53:37;99719.13;;;12.11;98.13
60918;BME280;46792;38.854;-9.384;2023-02-21T00:55:58;99716.97;;;12.13;98.61
60918;BME280;46792;38.854;-9.384;2023-02-21T00:58:20;99719.66;;;12.13;99.34
60918;BME280;46792;38.854;-9.384;2023-02-21T01:00:40;99718.88;;;12.13;100.00
60918;BME280;46792;38.854;-9.384;2023-02-21T01:02:59;99717.78;;;12.14;100.00
60918;BME280;46792;38.854;-9.384;2023-02-21T01:05:18;99713.19;;;12.14;100.00
60918;BME280;46792;38.854;-9.384;2023-02-21T01:07:38;99717.78;;;12.14;100.00
60918;BME280;46792;38.854;-9.384;2023-02-21T01:13:22;99708.06;;;12.18;100.00
60918;BME280;46792;38.854;-9.384;2023-02-21T01:15:43;99707.78;;;12.20;100.00
60918;BME280;46792;38.854;-9.384;2023-02-21T01:18:02;99706.41;;;12.22;100.00
60918;BME280;46792;38.854;-9.384;2023-02-21T01:20:26;99707.78;;;12.20;100.00
60918;BME280;46792;38.854;-9.384;2023-02-21T01:22:46;99709.41;;;12.21;100.00
60918;BME280;46792;38.854;-9.384;2023-02-21T01:25:06;99705.59;;;12.22;100.00
60918;BME280;46792;38.854;-9.384;2023-02-21T01:27:25;99699.66;;;12.25;100.00
60918;BME280;46792;38.854;-9.384;2023-02-21T01:29:44;99705.88;;;12.25;100.00
60918;BME280;46792;38.854;-9.384;2023-02-21T01:32:24;99700.47;;;12.25;100.00
60918;BME280;46792;38.854;-9.384;2023-02-21T01:34:43;99700.22;;;12.27;100.00
60918;BME280;46792;38.854;-9.384;2023-02-21T01:37:02;99703.72;;;12.27;100.00
60918;BME280;46792;38.854;-9.384;2023-02-21T01:39:27;99698.59;;;12.26;100.00
60918;BME280;46792;38.854;-9.384;2023-02-21T01:42:05;99712.63;;;12.28;100.00
60918;BME280;46792;38.854;-9.384;2023-02-21T01:44:32;99700.75;;;12.24;100.00
60918;BME280;46792;38.854;-9.384;2023-02-21T01:46:51;99699.38;;;12.26;100.00
60918;BME280;46792;38.854;-9.384;2023-02-21T01:49:16;99698.00;;;12.29;100.00
60918;BME280;46792;38.854;-9.384;2023-02-21T01:51:40;99705.88;;;12.30;100.00
60918;BME280;46792;38.854;-9.384;2023-02-21T01:54:00;99705.06;;;12.30;100.00
60918;BME280;46792;38.854;-9.384;2023-02-21T01:56:19;99708.84;;;12.29;100.00
60918;BME280;46792;38.854;-9.384;2023-02-21T01:58:38;99702.38;;;12.25;100.00
60918;BME280;46792;38.854;-9.384;2023-02-21T02:00:58;99701.28;;;12.21;100.00
60918;BME280;46792;38.854;-9.384;2023-02-21T02:03:19;99704.25;;;12.14;100.00
60918;BME280;46792;38.854;-9.384;2023-02-21T02:05:40;99697.75;;;12.05;100.00
60918;BME280;46792;38.854;-9.384;2023-02-21T02:08:00;99693.44;;;11.98;100.00
60918;BME280;46792;38.854;-9.384;2023-02-21T02:10:20;99692.28;;;11.89;100.00
60918;BME280;46792;38.854;-9.384;2023-02-21T02:13:41;99676.03;;;11.74;100.00
60918;BME280;46792;38.854;-9.384;2023-02-21T02:20:20;99693.59;;;11.66;100.00
60918;BME280;46792;38.854;-9.384;2023-02-21T02:25:17;99697.38;;;11.65;100.00
60918;BME280;46792;38.854;-9.384;2023-02-21T02:27:36;99696.31;;;11.66;100.00
60918;BME280;46792;38.854;-9.384;2023-02-21T02:32:21;99688.47;;;11.64;100.00
60918;BME280;46792;38.854;-9.384;2023-02-21T02:37:34;99694.69;;;11.65;100.00
60918;BME280;46792;38.854;-9.384;2023-02-21T02:41:52;99680.91;;;11.61;100.00
60918;BME280;46792;38.854;-9.384;2023-02-21T02:44:18;99687.66;;;11.64;100.00
60918;BME280;46792;38.854;-9.384;2023-02-21T02:46:27;99677.94;;;11.63;100.00
60918;BME280;46792;38.854;-9.384;2023-02-21T02:48:37;99671.44;;;11.59;100.00
60918;BME280;46792;38.854;-9.384;2023-02-21T02:50:40;99673.03;;;11.54;100.00
60918;BME280;46792;38.854;-9.384;2023-02-21T02:52:49;99688.47;;;11.54;100.00
60918;BME280;46792;38.854;-9.384;2023-02-21T02:54:59;99670.88;;;11.51;100.00
60918;BME280;46792;38.854;-9.384;2023-02-21T02:57:02;99675.75;;;11.54;100.00
60918;BME280;46792;38.854;-9.384;2023-02-21T02:59:24;99676.00;;;11.58;100.00
60918;BME280;46792;38.854;-9.384;2023-02-21T03:13:09;99673.91;;;11.70;100.00
60918;BME280;46792;38.854;-9.384;2023-02-21T03:15:44;99666.84;;;11.75;100.00
60918;BME280;46792;38.854;-9.384;2023-02-21T03:17:50;99666.06;;;11.74;100.00
60918;BME280;46792;38.854;-9.384;2023-02-21T03:19:53;99667.41;;;11.77;100.00
60918;BME280;46792;38.854;-9.384;2023-02-21T03:21:59;99658.72;;;11.75;100.00
60918;BME280;46792;38.854;-9.384;2023-02-21T03:24:02;99667.69;;;11.75;100.00
60918;BME280;46792;38.854;-9.384;2023-02-21T03:26:08;99670.94;;;11.93;100.00
60918;BME280;46792;38.854;-9.384;2023-02-21T03:28:13;99674.97;;;11.90;100.00
60918;BME280;46792;38.854;-9.384;2023-02-21T03:30:17;99675.25;;;11.83;100.00
60918;BME280;46792;38.854;-9.384;2023-02-21T03:32:29;99683.66;;;11.87;100.00
60918;BME280;46792;38.854;-9.384;2023-02-21T03:34:31;99670.38;;;11.85;100.00
60918;BME280;46792;38.854;-9.384;2023-02-21T03:36:34;99678.47;;;11.80;100.00
60918;BME280;46792;38.854;-9.384;2023-02-21T03:38:36;99678.19;;;11.71;100.00
60918;BME280;46792;38.854;-9.384;2023-02-21T03:40:36;99672.00;;;11.71;100.00
60918;BME280;46792;38.854;-9.384;2023-02-21T03:42:37;99680.09;;;11.66;100.00
60918;BME280;46792;38.854;-9.384;2023-02-21T03:44:38;99677.66;;;11.59;100.00
60918;BME280;46792;38.854;-9.384;2023-02-21T03:46:39;99679.00;;;11.67;100.00
60918;BME280;46792;38.854;-9.384;2023-02-21T03:48:39;99685.22;;;11.72;100.00
60918;BME280;46792;38.854;-9.384;2023-02-21T03:50:50;99680.91;;;11.77;100.00
60918;BME280;46792;38.854;-9.384;2023-02-21T03:52:52;99688.75;;;11.68;100.00
60918;BME280;46792;38.854;-9.384;2023-02-21T03:54:53;99689.59;;;11.79;100.00
60918;BME280;46792;38.854;-9.384;2023-02-21T03:56:56;99683.38;;;11.78;100.00
60918;BME280;46792;38.854;-9.384;2023-02-21T03:58:58;99689.31;;;11.80;100.00
60918;BME280;46792;38.854;-9.384;2023-02-21T04:00:59;99681.75;;;11.77;100.00
60918;BME280;46792;38.854;-9.384;2023-02-21T04:03:00;99686.63;;;11.91;100.00
60918;BME280;46792;38.854;-9.384;2023-02-21T04:05:09;99685.28;;;12.04;100.00
60918;BME280;46792;38.854;-9.384;2023-02-21T04:07:10;99685.53;;;11.97;100.00
60918;BME280;46792;38.854;-9.384;2023-02-21T04:09:30;99688.84;;;12.09;100.00
60918;BME280;46792;38.854;-9.384;2023-02-21T04:11:31;99687.75;;;12.15;100.00
60918;BME280;46792;38.854;-9.384;2023-02-21T04:13:32;99694.25;;;12.09;100.00
60918;BME280;46792;38.854;-9.384;2023-02-21T04:15:37;99692.88;;;12.07;100.00
60918;BME280;46792;38.854;-9.384;2023-02-21T04:17:56;99687.47;;;12.12;100.00
60918;BME280;46792;38.854;-9.384;2023-02-21T04:19:56;99687.19;;;12.13;100.00
60918;BME280;46792;38.854;-9.384;2023-02-21T04:21:58;99691.81;;;12.18;100.00
60918;BME280;46792;38.854;-9.384;2023-02-21T04:23:59;99681.25;;;12.22;100.00
60918;BME280;46792;38.854;-9.384;2023-02-21T04:26:04;99688.56;;;12.26;100.00
60918;BME280;46792;38.854;-9.384;2023-02-21T04:28:14;99688.25;;;12.28;100.00
60918;BME280;46792;38.854;-9.384;2023-02-21T04:30:14;99682.59;;;12.29;100.00
60918;BME280;46792;38.854;-9.384;2023-02-21T04:32:15;99686.91;;;12.36;100.00
60918;BME280;46792;38.854;-9.384;2023-02-21T04:34:16;99685.56;;;12.38;100.00
60918;BME280;46792;38.854;-9.384;2023-02-21T04:36:18;99692.06;;;12.42;100.00
60918;BME280;46792;38.854;-9.384;2023-02-21T04:38:37;99687.72;;;12.46;100.00
60918;BME280;46792;38.854;-9.384;2023-02-21T04:43:16;99679.88;;;12.45;100.00
60918;BME280;46792;38.854;-9.384;2023-02-21T04:45:17;99675.00;;;12.47;100.00
60918;BME280;46792;38.854;-9.384;2023-02-21T04:47:18;99685.56;;;12.48;100.00
60918;BME280;46792;38.854;-9.384;2023-02-21T04:49:18;99682.03;;;12.48;100.00
60918;BME280;46792;38.854;-9.384;2023-02-21T04:51:22;99684.75;;;12.48;100.00
60918;BME280;46792;38.854;-9.384;2023-02-21T04:53:23;99689.88;;;12.50;100.00
60918;BME280;46792;38.854;-9.384;2023-02-21T04:55:24;99674.19;;;12.46;100.00
60918;BME280;46792;38.854;-9.384;2023-02-21T04:57:25;99683.94;;;12.53;100.00
60918;BME280;46792;38.854;-9.384;2023-02-21T04:59:25;99685.56;;;12.54;100.00
60918;BME280;46792;38.854;-9.384;2023-02-21T05:03:47;99689.88;;;12.55;100.00
60918;BME280;46792;38.854;-9.384;2023-02-21T05:05:48;99686.63;;;12.58;100.00
60918;BME280;46792;38.854;-9.384;2023-02-21T05:07:48;99689.59;;;12.61;100.00
60918;BME280;46792;38.854;-9.384;2023-02-21T05:09:49;99689.59;;;12.61;100.00
60918;BME280;46792;38.854;-9.384;2023-02-21T05:11:49;99683.63;;;12.65;100.00
60918;BME280;46792;38.854;-9.384;2023-02-21T05:13:50;99680.94;;;12.59;100.00
60918;BME280;46792;38.854;-9.384;2023-02-21T05:15:51;99689.06;;;12.65;100.00
60918;BME280;46792;38.854;-9.384;2023-02-21T05:17:52;99687.16;;;12.60;100.00
60918;BME280;46792;38.854;-9.384;2023-02-21T05:19:53;99684.19;;;12.56;100.00
60918;BME280;46792;38.854;-9.384;2023-02-21T05:21:56;99690.72;;;12.50;100.00
60918;BME280;46792;38.854;-9.384;2023-02-21T05:26:54;99706.94;;;12.24;100.00
60918;BME280;46792;38.854;-9.384;2023-02-21T05:29:14;99701.28;;;12.10;100.00
60918;BME280;46792;38.854;-9.384;2023-02-21T05:31:14;99698.31;;;12.01;100.00
60918;BME280;46792;38.854;-9.384;2023-02-21T05:33:15;99705.88;;;11.99;100.00
60918;BME280;46792;38.854;-9.384;2023-02-21T05:35:16;99698.78;;;11.93;100.00
60918;BME280;46792;38.854;-9.384;2023-02-21T05:37:16;99708.81;;;11.93;100.00
60918;BME280;46792;38.854;-9.384;2023-02-21T05:39:20;99702.31;;;11.89;100.00
60918;BME280;46792;38.854;-9.384;2023-02-21T05:41:21;99704.19;;;11.88;100.00
60918;BME280;46792;38.854;-9.384;2023-02-21T05:43:22;99704.72;;;11.90;100.00
60918;BME280;46792;38.854;-9.384;2023-02-21T05:45:22;99699.06;;;11.97;100.00
60918;BME280;46792;38.854;-9.384;2023-02-21T05:47:23;99712.94;;;12.16;100.00
60918;BME280;46792;38.854;-9.384;2023-02-21T05:49:23;99710.75;;;12.23;100.00
60918;BME280;46792;38.854;-9.384;2023-02-21T05:51:26;99703.97;;;12.36;100.00
60918;BME280;46792;38.854;-9.384;2023-02-21T05:53:27;99703.16;;;12.46;100.00
60918;BME280;46792;38.854;-9.384;2023-02-21T05:55:27;99702.88;;;12.47;100.00
60918;BME280;46792;38.854;-9.384;2023-02-21T05:57:28;99711.00;;;12.47;100.00
60918;BME280;46792;38.854;-9.384;2023-02-21T05:59:28;99701.78;;;12.43;100.00
60918;BME280;46792;38.854;-9.384;2023-02-21T06:01:49;99710.75;;;12.34;100.00
60918;BME280;46792;38.854;-9.384;2023-02-21T06:03:49;99702.38;;;12.25;100.00
60918;BME280;46792;38.854;-9.384;2023-02-21T06:05:50;99708.56;;;12.20;100.00
60918;BME280;46792;38.854;-9.384;2023-02-21T06:07:50;99712.91;;;12.11;100.00
60918;BME280;46792;38.854;-9.384;2023-02-21T06:09:51;99706.69;;;12.05;100.00
60918;BME280;46792;38.854;-9.384;2023-02-21T06:11:54;99707.22;;;12.02;100.00
60918;BME280;46792;38.854;-9.384;2023-02-21T06:13:56;99709.94;;;12.02;100.00
60918;BME280;46792;38.854;-9.384;2023-02-21T06:15:57;99706.69;;;12.00;100.00
60918;BME280;46792;38.854;-9.384;2023-02-21T06:17:58;99709.66;;;11.98;100.00
60918;BME280;46792;38.854;-9.384;2023-02-21T06:19:58;99715.88;;;11.99;100.00
60918;BME280;46792;38.854;-9.384;2023-02-21T06:22:23;99721.31;;;12.09;100.00
60918;BME280;46792;38.854;-9.384;2023-02-21T06:24:24;99710.75;;;12.13;100.00
60918;BME280;46792;38.854;-9.384;2023-02-21T06:26:25;99721.84;;;12.16;100.00
60918;BME280;46792;38.854;-9.384;2023-02-21T06:28:29;99719.97;;;12.17;100.00
60918;BME280;46792;38.854;-9.384;2023-02-21T06:30:30;99718.31;;;12.21;100.00
60918;BME280;46792;38.854;-9.384;2023-02-21T06:32:31;99723.19;;;12.24;100.00
60918;BME280;46792;38.854;-9.384;2023-02-21T06:34:32;99721.88;;;12.27;100.00
60918;BME280;46792;38.854;-9.384;2023-02-21T06:36:33;99728.34;;;12.31;100.00
60918;BME280;46792;38.854;-9.384;2023-02-21T06:38:35;99726.97;;;12.39;100.00
60918;BME280;46792;38.854;-9.384;2023-02-21T06:40:35;99724.81;;;12.46;100.00
60918;BME280;46792;38.854;-9.384;2023-02-21T06:42:36;99725.09;;;12.50;100.00
60918;BME280;46792;38.854;-9.384;2023-02-21T06:44:36;99722.63;;;12.53;100.00
60918;BME280;46792;38.854;-9.384;2023-02-21T06:46:37;99717.75;;;12.55;100.00
60918;BME280;46792;38.854;-9.384;2023-02-21T06:48:38;99721.84;;;12.58;100.00
60918;BME280;46792;38.854;-9.384;2023-02-21T06:50:38;99718.56;;;12.61;100.00
60918;BME280;46792;38.854;-9.384;2023-02-21T06:52:39;99728.31;;;12.62;100.00
60918;BME280;46792;38.854;-9.384;2023-02-21T06:54:40;99726.69;;;12.61;100.00
60918;BME280;46792;38.854;-9.384;2023-02-21T06:56:41;99723.19;;;12.66;100.00
60918;BME280;46792;38.854;-9.384;2023-02-21T06:58:41;99724.25;;;12.70;100.00
60918;BME280;46792;38.854;-9.384;2023-02-21T07:00:42;99726.41;;;12.68;100.00
60918;BME280;46792;38.854;-9.384;2023-02-21T07:02:43;99735.34;;;12.68;100.00
60918;BME280;46792;38.854;-9.384;2023-02-21T07:04:45;99729.94;;;12.68;100.00
60918;BME280;46792;38.854;-9.384;2023-02-21T07:07:04;99729.41;;;12.66;100.00
60918;BME280;46792;38.854;-9.384;2023-02-21T07:09:05;99729.97;;;12.58;100.00
60918;BME280;46792;38.854;-9.384;2023-02-21T07:11:07;99734.00;;;12.60;100.00
60918;BME280;46792;38.854;-9.384;2023-02-21T07:13:08;99733.47;;;12.58;100.00
60918;BME280;46792;38.854;-9.384;2023-02-21T07:15:08;99735.34;;;12.63;100.00
60918;BME280;46792;38.854;-9.384;2023-02-21T07:17:09;99734.56;;;12.57;100.00
60918;BME280;46792;38.854;-9.384;2023-02-21T07:19:10;99731.03;;;12.62;100.00
60918;BME280;46792;38.854;-9.384;2023-02-21T07:21:16;99744.56;;;12.62;100.00
60918;BME280;46792;38.854;-9.384;2023-02-21T07:23:17;99754.31;;;12.68;100.00
60918;BME280;46792;38.854;-9.384;2023-02-21T07:25:20;99743.47;;;12.73;100.00
60918;BME280;46792;38.854;-9.384;2023-02-21T07:27:21;99746.47;;;12.67;100.00
60918;BME280;46792;38.854;-9.384;2023-02-21T07:29:22;99751.34;;;12.65;100.00
60918;BME280;46792;38.854;-9.384;2023-02-21T07:31:23;99752.16;;;12.65;100.00
60918;BME280;46792;38.854;-9.384;2023-02-21T07:33:24;99755.69;;;12.60;100.00
60918;BME280;46792;38.854;-9.384;2023-02-21T07:35:25;99756.22;;;12.57;100.00
60918;BME280;46792;38.854;-9.384;2023-02-21T07:37:26;99757.31;;;12.56;100.00
60918;BME280;46792;38.854;-9.384;2023-02-21T07:39:26;99758.13;;;12.57;100.00
60918;BME280;46792;38.854;-9.384;2023-02-21T07:41:27;99752.72;;;12.57;100.00
60918;BME280;46792;38.854;-9.384;2023-02-21T07:43:29;99763.53;;;12.57;100.00
60918;BME280;46792;38.854;-9.384;2023-02-21T07:45:30;99758.13;;;12.57;100.00
60918;BME280;46792;38.854;-9.384;2023-02-21T07:47:30;99767.34;;;12.56;100.00
60918;BME280;46792;38.854;-9.384;2023-02-21T07:49:31;99767.88;;;12.53;100.00
60918;BME280;46792;38.854;-9.384;2023-02-21T07:51:37;99768.94;;;12.52;100.00
60918;BME280;46792;38.854;-9.384;2023-02-21T07:53:39;99775.16;;;12.52;100.00
60918;BME280;46792;38.854;-9.384;2023-02-21T07:55:40;99771.13;;;12.55;100.00
60918;BME280;46792;38.854;-9.384;2023-02-21T07:59:59;99775.72;;;12.49;100.00
60918;BME280;46792;38.854;-9.384;2023-02-21T08:02:00;99782.22;;;12.48;100.00
60918;BME280;46792;38.854;-9.384;2023-02-21T08:04:01;99790.06;;;12.50;100.00
60918;BME280;46792;38.854;-9.384;2023-02-21T08:06:02;99779.25;;;12.50;100.00
60918;BME280;46792;38.854;-9.384;2023-02-21T08:08:06;99784.66;;;12.55;100.00
60918;BME280;46792;38.854;-9.384;2023-02-21T08:10:26;99782.50;;;12.57;100.00
60918;BME280;46792;38.854;-9.384;2023-02-21T08:20:42;99792.78;;;12.65;100.00
60918;BME280;46792;38.854;-9.384;2023-02-21T08:22:43;99793.31;;;12.67;100.00
60918;BME280;46792;38.854;-9.384;2023-02-21T08:24:43;99791.16;;;12.69;100.00
60918;BME280;46792;38.854;-9.384;2023-02-21T08:26:44;99802.53;;;12.71;100.00
60918;BME280;46792;38.854;-9.384;2023-02-21T08:28:45;99804.16;;;12.72;100.00
60918;BME280;46792;38.854;-9.384;2023-02-21T08:30:46;99803.59;;;12.81;100.00
60918;BME280;46792;38.854;-9.384;2023-02-21T08:33:05;99804.13;;;12.83;100.00
60918;BME280;46792;38.854;-9.384;2023-02-21T08:35:06;99805.78;;;12.84;100.00
60918;BME280;46792;38.854;-9.384;2023-02-21T08:37:07;99810.91;;;12.85;100.00
60918;BME280;46792;38.854;-9.384;2023-02-21T08:39:35;99807.91;;;12.92;100.00
60918;BME280;46792;38.854;-9.384;2023-02-21T08:41:43;99809.53;;;12.93;100.00
60918;BME280;46792;38.854;-9.384;2023-02-21T08:43:45;99808.47;;;12.94;100.00
60918;BME280;46792;38.854;-9.384;2023-02-21T08:45:46;99814.72;;;12.95;100.00
60918;BME280;46792;38.854;-9.384;2023-02-21T08:47:46;99822.28;;;12.98;100.00
60918;BME280;46792;38.854;-9.384;2023-02-21T08:49:47;99820.66;;;12.97;100.00
60918;BME280;46792;38.854;-9.384;2023-02-21T08:52:07;99825.81;;;12.98;100.00
60918;BME280;46792;38.854;-9.384;2023-02-21T08:54:08;99825.25;;;13.01;100.00
60918;BME280;46792;38.854;-9.384;2023-02-21T08:56:09;99833.94;;;12.98;100.00
60918;BME280;46792;38.854;-9.384;2023-02-21T09:03:27;99832.28;;;13.13;100.00
60918;BME280;46792;38.854;-9.384;2023-02-21T09:05:29;99840.41;;;13.13;100.00
60918;BME280;46792;38.854;-9.384;2023-02-21T09:07:30;99835.53;;;13.15;100.00
60918;BME280;46792;38.854;-9.384;2023-02-21T09:09:32;99841.25;;;13.13;100.00
60918;BME280;46792;38.854;-9.384;2023-02-21T09:11:33;99845.00;;;13.17;100.00
60918;BME280;46792;38.854;-9.384;2023-02-21T09:13:34;99840.97;;;13.20;100.00
60918;BME280;46792;38.854;-9.384;2023-02-21T09:15:34;99847.19;;;13.20;100.00
60918;BME280;46792;38.854;-9.384;2023-02-21T09:17:35;99849.88;;;13.20;100.00
60918;BME280;46792;38.854;-9.384;2023-02-21T09:19:36;99860.19;;;13.18;100.00
60918;BME280;46792;38.854;-9.384;2023-02-21T09:21:37;99852.84;;;13.24;100.00
60918;BME280;46792;38.854;-9.384;2023-02-21T09:23:44;99851.50;;;13.27;100.00
60918;BME280;46792;38.854;-9.384;2023-02-21T09:25:48;99858.81;;;13.26;100.00
60918;BME280;46792;38.854;-9.384;2023-02-21T09:27:50;99870.75;;;13.30;100.00
60918;BME280;46792;38.854;-9.384;2023-02-21T09:29:51;99866.41;;;13.24;100.00
60918;BME280;46792;38.854;-9.384;2023-02-21T09:31:52;99871.28;;;13.27;100.00
60918;BME280;46792;38.854;-9.384;2023-02-21T09:33:53;99865.88;;;13.27;100.00
60918;BME280;46792;38.854;-9.384;2023-02-21T09:35:53;99875.63;;;13.38;100.00
60918;BME280;46792;38.854;-9.384;2023-02-21T09:37:54;99877.81;;;13.36;100.00
60918;BME280;46792;38.854;-9.384;2023-02-21T09:39:59;99874.53;;;13.45;100.00
60918;BME280;46792;38.854;-9.384;2023-02-21T09:42:20;99878.84;;;13.56;100.00
60918;BME280;46792;38.854;-9.384;2023-02-21T09:44:26;99881.53;;;13.66;100.00
60918;BME280;46792;38.854;-9.384;2023-02-21T09:46:43;99880.16;;;13.74;100.00
60918;BME280;46792;38.854;-9.384;2023-02-21T09:48:45;99884.50;;;13.75;100.00
60918;BME280;46792;38.854;-9.384;2023-02-21T09:50:49;99896.16;;;13.81;100.00
60918;BME280;46792;38.854;-9.384;2023-02-21T09:52:51;99894.56;;;13.69;100.00
60918;BME280;46792;38.854;-9.384;2023-02-21T09:54:56;99892.91;;;13.74;100.00
60918;BME280;46792;38.854;-9.384;2023-02-21T09:57:02;99884.81;;;13.63;100.00
60918;BME280;46792;38.854;-9.384;2023-02-21T10:06:51;99906.53;;;13.48;100.00
60918;BME280;46792;38.854;-9.384;2023-02-21T10:11:26;99903.78;;;13.63;100.00
60918;BME280;46792;38.854;-9.384;2023-02-21T10:16:36;99904.28;;;13.81;100.00
60918;BME280;46792;38.854;-9.384;2023-02-21T10:21:10;99898.88;;;13.76;100.00
60918;BME280;46792;38.854;-9.384;2023-02-21T10:28:20;99903.19;;;13.87;100.00
60918;BME280;46792;38.854;-9.384;2023-02-21T10:30:33;99906.41;;;13.94;100.00
60918;BME280;46792;38.854;-9.384;2023-02-21T10:32:35;99910.16;;;14.09;100.00
60918;BME280;46792;38.854;-9.384;2023-02-21T10:34:56;99902.47;;;14.26;100.00
60918;BME280;46792;38.854;-9.384;2023-02-21T10:37:39;99902.41;;;14.37;100.00
60918;BME280;46792;38.854;-9.384;2023-02-21T10:39:49;99902.59;;;14.51;100.00
60918;BME280;46792;38.854;-9.384;2023-02-21T10:50:05;99907.28;;;14.85;100.00
60918;BME280;46792;38.854;-9.384;2023-02-21T10:52:10;99905.66;;;14.84;100.00
60918;BME280;46792;38.854;-9.384;2023-02-21T10:54:20;99904.81;;;14.88;100.00
60918;BME280;46792;38.854;-9.384;2023-02-21T10:56:26;99904.16;;;15.02;100.00
60918;BME280;46792;38.854;-9.384;2023-02-21T10:58:29;99902.22;;;15.08;100.00
60918;BME280;46792;38.854;-9.384;2023-02-21T11:00:48;99901.06;;;15.14;100.00
60918;BME280;46792;38.854;-9.384;2023-02-21T11:08:34;99904.06;;;15.42;100.00
60918;BME280;46792;38.854;-9.384;2023-02-21T11:12:37;99905.22;;;15.06;100.00
60918;BME280;46792;38.854;-9.384;2023-02-21T11:14:37;99906.84;;;15.07;100.00
60918;BME280;46792;38.854;-9.384;2023-02-21T11:17:35;99900.34;;;15.03;100.00
60918;BME280;46792;38.854;-9.384;2023-02-21T11:21:43;99896.13;;;15.21;100.00
60918;BME280;46792;38.854;-9.384;2023-02-21T11:24:00;99902.97;;;15.43;100.00
60918;BME280;46792;38.854;-9.384;2023-02-21T11:26:08;99905.81;;;15.57;99.65
60918;BME280;46792;38.854;-9.384;2023-02-21T11:33:00;99909.69;;;15.75;95.15
60918;BME280;46792;38.854;-9.384;2023-02-21T11:35:27;99911.06;;;15.77;95.07
60918;BME280;46792;38.854;-9.384;2023-02-21T11:37:29;99907.81;;;15.75;95.99
60918;BME280;46792;38.854;-9.384;2023-02-21T11:39:32;99911.06;;;15.77;95.06
60918;BME280;46792;38.854;-9.384;2023-02-21T11:41:44;99908.34;;;15.77;95.30
60918;BME280;46792;38.854;-9.384;2023-02-21T11:43:47;99905.53;;;15.58;96.21
60918;BME280;46792;38.854;-9.384;2023-02-21T11:46:13;99908.38;;;15.48;96.44
60918;BME280;46792;38.854;-9.384;2023-02-21T11:48:16;99910.28;;;15.47;97.43
60918;BME280;46792;38.854;-9.384;2023-02-21T11:50:26;99911.44;;;15.41;97.95
60918;BME280;46792;38.854;-9.384;2023-02-21T11:54:50;99910.06;;;15.14;99.96
60918;BME280;46792;38.854;-9.384;2023-02-21T11:56:56;99906.69;;;15.23;100.00
60918;BME280;46792;38.854;-9.384;2023-02-21T11:59:09;99901.63;;;15.11;100.00
60918;BME280;46792;38.854;-9.384;2023-02-21T12:01:15;99909.13;;;14.95;100.00
60918;BME280;46792;38.854;-9.384;2023-02-21T12:12:49;99902.72;;;14.80;100.00
60918;BME280;46792;38.854;-9.384;2023-02-21T12:24:21;99900.56;;;14.77;100.00
60918;BME280;46792;38.854;-9.384;2023-02-21T12:26:56;99895.16;;;14.72;100.00
60918;BME280;46792;38.854;-9.384;2023-02-21T12:38:33;99883.38;;;14.82;100.00
60918;BME280;46792;38.854;-9.384;2023-02-21T12:43:50;99881.50;;;14.82;100.00
60918;BME280;46792;38.854;-9.384;2023-02-21T12:46:02;99883.81;;;14.94;99.34
60918;BME280;46792;38.854;-9.384;2023-02-21T12:50:28;99870.44;;;15.03;97.46
60918;BME280;46792;38.854;-9.384;2023-02-21T12:52:56;99870.22;;;15.29;97.96
60918;BME280;46792;38.854;-9.384;2023-02-21T12:55:23;99874.97;;;15.42;95.97
60918;BME280;46792;38.854;-9.384;2023-02-21T12:57:37;99872.53;;;15.65;95.41
60918;BME280;46792;38.854;-9.384;2023-02-21T13:00:03;99863.16;;;15.76;92.65
60918;BME280;46792;38.854;-9.384;2023-02-21T13:02:28;99867.06;;;15.65;92.06
60918;BME280;46792;38.854;-9.384;2023-02-21T13:04:37;99863.88;;;15.63;92.04
60918;BME280;46792;38.854;-9.384;2023-02-21T13:06:54;99863.25;;;15.66;91.12
60918;BME280;46792;38.854;-9.384;2023-02-21T13:09:10;99863.22;;;15.71;90.60
60918;BME280;46792;38.854;-9.384;2023-02-21T13:13:21;99862.69;;;15.69;90.89
60918;BME280;46792;38.854;-9.384;2023-02-21T13:18:24;99856.53;;;15.58;90.64
60918;BME280;46792;38.854;-9.384;2023-02-21T13:20:29;99854.13;;;15.57;92.12
60918;BME280;46792;38.854;-9.384;2023-02-21T13:28:17;99847.22;;;15.40;91.95
60918;BME280;46792;38.854;-9.384;2023-02-21T13:30:39;99848.25;;;15.20;94.15
60918;BME280;46792;38.854;-9.384;2023-02-21T13:32:50;99844.25;;;15.12;93.88